Time;durP1;ratioP1;P1;durP2;ratioP2;P2;SDS_P1;SDS_P2;PMS_P1;PMS_P2;Temp;Humidity;BMP_temperature;BMP_pressure;BME280_temperature;BME280_humidity;BME280_pressure;Samples;Min_cycle;Max_cycle;Signal;HPM_P1;HPM_P2
2023/09/21 00:01:45;;;;;;;3.43;0.80;;;25.40;21.20;;;;;;4974971;28;20330;-67
2023/09/21 00:04:12;;;;;;;3.60;0.90;;;25.70;18.50;;;;;;4975180;28;20195;-67
2023/09/21 00:06:40;;;;;;;2.60;0.90;;;25.90;21.70;;;;;;4974273;28;20237;-67
2023/09/21 00:09:08;;;;;;;5.27;1.20;;;26.00;18.30;;;;;;4975070;28;20563;-68
2023/09/21 00:11:36;;;;;;;2.90;0.80;;;26.00;17.00;;;;;;4975156;28;20274;-68
2023/09/21 00:14:04;;;;;;;6.53;0.97;;;26.60;16.00;;;;;;4977783;28;20693;-68
2023/09/21 00:16:32;;;;;;;3.60;1.00;;;27.10;17.80;;;;;;4994253;28;20189;-67
2023/09/21 00:19:07;;;;;;;2.00;0.60;;;27.70;15.50;;;;;;4976825;28;20179;-67
2023/09/21 00:21:37;;;;;;;2.67;0.90;;;27.50;9.90;;;;;;4976669;28;20214;-68
2023/09/21 00:24:06;;;;;;;4.23;0.90;;;27.60;10.30;;;;;;4969895;28;20659;-68
2023/09/21 00:26:34;;;;;;;1.10;0.70;;;26.80;5.00;;;;;;4974259;28;20280;-68
2023/09/21 00:29:03;;;;;;;4.30;1.17;;;27.00;4.60;;;;;;4974241;28;20172;-69
2023/09/21 00:31:31;;;;;;;2.70;0.90;;;26.90;1.00;;;;;;4974365;28;20187;-67
2023/09/21 00:33:59;;;;;;;1.43;0.60;;;26.70;1.00;;;;;;4974411;28;20182;-67
2023/09/21 00:36:26;;;;;;;4.37;0.70;;;26.90;1.00;;;;;;4973703;28;20180;-67
2023/09/21 00:38:55;;;;;;;3.80;0.90;;;26.70;1.00;;;;;;4974815;28;20179;-67
2023/09/21 00:41:22;;;;;;;2.93;0.93;;;26.70;1.00;;;;;;4974099;28;20219;-69
2023/09/21 00:43:50;;;;;;;1.80;0.67;;;27.30;1.00;;;;;;4973295;28;20183;-68
2023/09/21 00:46:21;;;;;;;1.50;0.77;;;27.60;1.00;;;;;;4972495;28;20183;-69
2023/09/21 00:48:50;;;;;;;2.33;0.70;;;27.40;1.00;;;;;;4981853;28;20183;-68
2023/09/21 00:51:17;;;;;;;3.33;0.90;;;27.40;1.00;;;;;;4979139;28;20222;-69
2023/09/21 00:53:47;;;;;;;2.53;0.60;;;27.20;1.00;;;;;;4974224;28;20179;-67
2023/09/21 00:56:18;;;;;;;1.63;0.80;;;27.60;1.00;;;;;;4974079;28;20218;-66
2023/09/21 00:58:53;;;;;;;1.87;0.60;;;26.80;1.00;;;;;;4973839;28;20223;-69
2023/09/21 01:01:27;;;;;;;1.20;0.67;;;26.80;1.00;;;;;;4961712;28;20223;-66
2023/09/21 01:03:55;;;;;;;2.07;0.97;;;27.00;1.00;;;;;;4954850;29;20191;-67
2023/09/21 01:06:23;;;;;;;1.23;0.70;;;27.30;1.00;;;;;;4959942;28;20263;-66
2023/09/21 01:08:51;;;;;;;1.77;1.07;;;27.20;1.00;;;;;;4973989;28;20168;-69
2023/09/21 01:11:20;;;;;;;2.40;0.60;;;27.40;1.00;;;;;;4973450;28;20242;-67
2023/09/21 01:13:48;;;;;;;3.20;0.80;;;27.60;1.00;;;;;;4971964;28;20598;-68
2023/09/21 01:16:17;;;;;;;1.97;0.70;;;28.00;1.00;;;;;;4973745;28;20190;-67
2023/09/21 01:18:46;;;;;;;3.60;0.90;;;27.70;1.00;;;;;;4973803;28;20191;-68
2023/09/21 01:21:16;;;;;;;1.13;0.77;;;28.20;1.00;;;;;;4973160;28;20335;-68
2023/09/21 01:23:49;;;;;;;5.60;0.70;;;28.40;1.00;;;;;;4973723;28;20190;-68
2023/09/21 01:26:18;;;;;;;3.53;0.80;;;27.80;1.00;;;;;;4973626;28;20197;-67
2023/09/21 01:28:47;;;;;;;2.40;0.80;;;27.60;1.00;;;;;;4973335;28;20183;-68
2023/09/21 01:31:18;;;;;;;1.00;0.40;;;27.90;1.00;;;;;;4973345;28;20191;-67
2023/09/21 01:33:47;;;;;;;1.77;0.47;;;27.70;1.00;;;;;;4973453;28;20187;-68
2023/09/21 01:36:15;;;;;;;0.47;0.40;;;27.80;1.00;;;;;;4972540;28;20208;-67
2023/09/21 01:38:46;;;;;;;2.77;0.67;;;28.00;1.00;;;;;;4973636;28;20238;-68
2023/09/21 01:41:18;;;;;;;1.17;0.60;;;28.00;1.00;;;;;;4972807;28;20229;-67
2023/09/21 01:43:46;;;;;;;1.13;0.40;;;28.30;1.00;;;;;;4972664;28;20191;-68
2023/09/21 01:46:18;;;;;;;0.73;0.40;;;27.80;1.00;;;;;;4973349;28;20187;-68
2023/09/21 01:48:46;;;;;;;1.30;0.50;;;27.80;1.00;;;;;;4971686;28;20977;-67
2023/09/21 01:51:14;;;;;;;2.93;0.40;;;27.40;1.00;;;;;;4972516;28;20183;-67
2023/09/21 01:53:45;;;;;;;0.57;0.30;;;27.40;1.00;;;;;;4972888;28;20270;-67
2023/09/21 01:56:14;;;;;;;1.03;0.40;;;27.80;1.00;;;;;;4973401;28;20182;-67
2023/09/21 01:58:42;;;;;;;2.53;0.50;;;28.30;1.00;;;;;;4972909;28;20181;-67
2023/09/21 02:01:10;;;;;;;2.20;0.40;;;28.50;1.00;;;;;;4973292;28;20218;-67
2023/09/21 02:03:39;;;;;;;0.83;0.30;;;28.10;1.00;;;;;;4972869;28;20198;-68
2023/09/21 02:06:07;;;;;;;0.70;0.50;;;28.10;1.00;;;;;;4972864;28;20183;-67
2023/09/21 02:08:34;;;;;;;1.07;0.60;;;28.50;1.00;;;;;;4972919;28;20219;-67
2023/09/21 02:11:05;;;;;;;1.65;0.47;;;29.10;1.00;;;;;;4973403;28;20233;-68
2023/09/21 02:13:33;;;;;;;0.70;0.40;;;28.40;1.00;;;;;;4972157;28;20227;-68
2023/09/21 02:16:02;;;;;;;0.77;0.37;;;28.40;1.00;;;;;;4973563;28;20183;-69
2023/09/21 02:18:30;;;;;;;0.80;0.40;;;28.50;1.00;;;;;;4972989;28;20191;-68
2023/09/21 02:20:59;;;;;;;0.33;0.33;;;28.80;1.00;;;;;;4972420;28;20211;-68
2023/09/21 02:23:27;;;;;;;6.80;0.63;;;28.30;1.00;;;;;;4972671;28;20180;-69
2023/09/21 02:25:55;;;;;;;3.23;0.83;;;28.80;1.00;;;;;;4972692;28;20277;-67
2023/09/21 02:28:23;;;;;;;8.70;1.53;;;28.80;2.30;;;;;;4972457;28;20187;-68
2023/09/21 02:30:51;;;;;;;4.43;1.30;;;28.20;25.20;;;;;;4973021;28;20676;-68
2023/09/21 02:33:22;;;;;;;5.73;1.60;;;28.20;39.60;;;;;;4972663;28;20186;-69
2023/09/21 02:35:50;;;;;;;4.97;1.40;;;28.20;45.40;;;;;;4972022;28;20229;-69
2023/09/21 02:38:20;;;;;;;7.80;1.25;;;28.40;46.10;;;;;;4972872;28;20629;-68
2023/09/21 02:40:48;;;;;;;3.73;1.20;;;28.00;46.60;;;;;;4972706;28;20269;-68
2023/09/21 02:43:16;;;;;;;9.97;1.63;;;27.60;46.10;;;;;;4954967;28;20324;-69
2023/09/21 02:45:44;;;;;;;4.53;1.43;;;27.60;48.20;;;;;;4972136;28;20587;-68
2023/09/21 02:48:12;;;;;;;9.57;1.63;;;27.90;44.40;;;;;;4972446;28;20202;-68
2023/09/21 02:54:03;;;;;;;5.20;1.50;;;28.30;42.40;;;;;;4953090;29;20227;-69
2023/09/21 02:56:31;;;;;;;3.90;1.50;;;27.80;44.90;;;;;;4966893;28;20198;-67
2023/09/21 02:59:00;;;;;;;5.73;1.73;;;28.20;49.90;;;;;;4974755;28;20284;-69
2023/09/21 03:01:28;;;;;;;9.70;1.33;;;27.80;51.50;;;;;;4976229;28;20711;-69
2023/09/21 03:03:56;;;;;;;5.13;1.40;;;27.10;60.00;;;;;;4975210;28;20198;-69
2023/09/21 03:06:23;;;;;;;9.30;1.80;;;26.00;67.30;;;;;;4975960;28;20199;-67
2023/09/21 03:08:51;;;;;;;8.70;1.83;;;24.60;87.90;;;;;;4976013;28;20214;-67
2023/09/21 03:11:19;;;;;;;5.73;1.53;;;24.00;96.50;;;;;;4975628;28;20179;-67
2023/09/21 03:13:47;;;;;;;8.40;2.43;;;23.80;99.90;;;;;;4975496;28;20719;-68
2023/09/21 03:16:16;;;;;;;11.53;2.20;;;24.20;99.90;;;;;;4975926;28;20764;-68
2023/09/21 03:18:47;;;;;;;7.47;1.63;;;24.80;99.90;;;;;;4975579;28;20187;-67
2023/09/21 03:21:15;;;;;;;3.80;1.67;;;25.00;99.90;;;;;;4975825;28;20231;-67
2023/09/21 03:23:45;;;;;;;5.63;1.90;;;25.60;94.30;;;;;;4975375;28;20198;-67
2023/09/21 03:26:18;;;;;;;8.47;1.80;;;25.10;93.30;;;;;;4975073;28;20223;-67
2023/09/21 03:28:47;;;;;;;8.77;1.90;;;24.50;94.50;;;;;;4959519;28;20322;-67
2023/09/21 03:31:15;;;;;;;6.50;2.10;;;23.60;99.90;;;;;;4975522;28;20206;-68
2023/09/21 03:33:43;;;;;;;9.00;2.00;;;23.10;99.90;;;;;;4975343;28;20186;-69
2023/09/21 03:36:13;;;;;;;5.33;1.67;;;23.10;99.90;;;;;;4958173;28;20671;-69
2023/09/21 03:38:41;;;;;;;9.93;1.90;;;23.80;99.90;;;;;;4958318;28;20291;-68
2023/09/21 03:41:10;;;;;;;6.13;1.73;;;24.40;99.90;;;;;;4975069;28;20211;-68
2023/09/21 03:43:37;;;;;;;4.97;1.83;;;24.90;99.90;;;;;;4975286;28;20183;-68
2023/09/21 03:46:05;;;;;;;7.33;2.07;;;25.00;99.90;;;;;;4956288;29;20569;-68
2023/09/21 03:48:35;;;;;;;6.37;1.67;;;25.20;98.80;;;;;;4955813;29;20266;-68
2023/09/21 03:51:03;;;;;;;10.83;2.17;;;25.50;98.00;;;;;;4956016;29;20218;-68
2023/09/21 03:53:33;;;;;;;6.43;1.40;;;25.20;98.30;;;;;;4956039;29;20215;-68
2023/09/21 03:56:01;;;;;;;3.73;1.40;;;25.40;97.20;;;;;;4971848;28;20231;-68
2023/09/21 03:58:30;;;;;;;7.03;1.80;;;25.50;94.20;;;;;;4975472;28;20197;-67
2023/09/21 04:01:04;;;;;;;6.23;2.10;;;25.70;94.30;;;;;;4957495;28;20214;-67
2023/09/21 04:03:32;;;;;;;12.57;1.60;;;26.00;94.10;;;;;;4974495;28;20191;-68
2023/09/21 04:06:03;;;;;;;5.50;1.70;;;25.40;92.10;;;;;;4960575;28;20616;-69
2023/09/21 04:08:31;;;;;;;6.63;1.63;;;24.80;93.90;;;;;;4975082;28;20629;-68
2023/09/21 04:11:02;;;;;;;9.23;1.57;;;24.10;96.60;;;;;;4973239;28;20587;-68
2023/09/21 04:13:29;;;;;;;5.67;1.90;;;24.00;99.90;;;;;;4974588;28;20660;-67
2023/09/21 04:15:58;;;;;;;10.70;2.33;;;24.40;99.90;;;;;;4955560;29;20191;-67
2023/09/21 04:18:26;;;;;;;7.30;1.60;;;24.50;99.90;;;;;;4955084;29;20192;-69
2023/09/21 04:20:54;;;;;;;10.77;2.00;;;24.50;99.90;;;;;;4955417;29;20279;-68
2023/09/21 04:23:24;;;;;;;7.20;1.70;;;24.50;99.90;;;;;;4962091;28;20257;-69
2023/09/21 04:25:52;;;;;;;6.33;2.70;;;24.30;99.90;;;;;;4972813;28;20237;-68
2023/09/21 04:28:20;;;;;;;10.47;1.60;;;24.60;99.90;;;;;;4974739;28;20179;-69
2023/09/21 04:30:48;;;;;;;5.97;1.50;;;24.70;99.90;;;;;;4974615;28;20191;-68
2023/09/21 04:33:15;;;;;;;6.43;1.77;;;24.70;99.90;;;;;;4973836;28;20207;-68
2023/09/21 04:35:43;;;;;;;5.93;1.60;;;23.90;99.90;;;;;;4974162;28;20262;-68
2023/09/21 04:38:15;;;;;;;8.13;1.87;;;23.80;99.90;;;;;;4974561;28;20215;-68
2023/09/21 04:40:48;;;;;;;7.40;1.90;;;23.70;99.90;;;;;;4973839;28;20235;-69
2023/09/21 04:43:17;;;;;;;7.10;1.67;;;23.90;99.90;;;;;;4974395;28;20606;-68
2023/09/21 04:45:49;;;;;;;8.80;1.80;;;23.90;99.90;;;;;;4974015;28;20195;-68
2023/09/21 04:48:17;;;;;;;9.93;2.30;;;23.80;99.90;;;;;;4955939;28;20215;-68
2023/09/21 04:50:48;;;;;;;7.13;1.80;;;23.50;99.90;;;;;;4973738;28;20210;-67
2023/09/21 04:53:16;;;;;;;10.30;1.93;;;23.50;99.90;;;;;;4974000;28;20187;-68
2023/09/21 04:55:44;;;;;;;13.07;2.17;;;22.90;99.90;;;;;;4973550;28;20673;-68
2023/09/21 04:58:12;;;;;;;8.33;2.27;;;22.60;99.90;;;;;;4974204;28;20183;-68
2023/09/21 05:00:40;;;;;;;8.10;2.07;;;22.80;99.90;;;;;;4973922;28;20206;-68
2023/09/21 05:03:09;;;;;;;8.53;1.77;;;22.60;99.90;;;;;;4973631;28;20695;-68
2023/09/21 05:05:37;;;;;;;6.50;1.70;;;22.60;99.90;;;;;;4973499;28;20175;-68
2023/09/21 05:08:05;;;;;;;10.50;2.17;;;22.40;99.90;;;;;;4973949;28;20179;-67
2023/09/21 05:10:33;;;;;;;9.63;1.90;;;22.40;99.90;;;;;;4973482;28;20183;-66
2023/09/21 05:13:02;;;;;;;7.53;1.83;;;22.40;99.90;;;;;;4973555;28;20187;-68
2023/09/21 05:15:30;;;;;;;8.00;1.80;;;22.20;99.90;;;;;;4973787;28;20661;-68
2023/09/21 05:17:57;;;;;;;7.27;1.93;;;22.30;99.90;;;;;;4973566;28;20171;-68
2023/09/21 05:20:25;;;;;;;4.83;1.30;;;22.20;99.90;;;;;;4973246;28;20262;-68
2023/09/21 05:22:55;;;;;;;11.40;2.20;;;22.20;99.90;;;;;;4973344;28;20198;-69
2023/09/21 05:25:22;;;;;;;10.60;1.70;;;22.30;99.90;;;;;;4972705;28;20190;-68
2023/09/21 05:27:50;;;;;;;9.90;1.73;;;22.20;99.90;;;;;;4973637;28;20180;-69
2023/09/21 05:30:19;;;;;;;8.23;1.90;;;21.80;99.90;;;;;;4973647;28;20636;-69
2023/09/21 05:32:46;;;;;;;11.47;2.93;;;21.70;99.90;;;;;;4973030;28;20206;-68
2023/09/21 05:35:15;;;;;;;8.67;2.17;;;21.80;99.90;;;;;;4955506;28;20232;-68
2023/09/21 05:37:44;;;;;;;10.73;2.20;;;21.70;99.90;;;;;;4973322;28;20653;-68
2023/09/21 05:40:12;;;;;;;8.30;1.83;;;21.60;99.90;;;;;;4972814;28;20184;-69
2023/09/21 05:42:41;;;;;;;6.87;1.60;;;21.40;99.90;;;;;;4973398;28;20674;-69
2023/09/21 05:45:12;;;;;;;12.43;2.13;;;21.40;99.90;;;;;;4972945;28;20764;-69
2023/09/21 05:47:40;;;;;;;6.70;1.90;;;21.50;99.90;;;;;;4973212;28;20194;-69
2023/09/21 05:50:08;;;;;;;6.40;1.70;;;21.40;99.90;;;;;;4973182;28;20194;-72
2023/09/21 05:52:36;;;;;;;4.17;1.40;;;21.40;99.90;;;;;;4973245;28;20270;-69
2023/09/21 05:55:04;;;;;;;11.93;1.90;;;21.60;99.90;;;;;;4972076;28;20206;-70
2023/09/21 05:57:32;;;;;;;9.73;1.83;;;21.70;99.90;;;;;;4973413;28;20175;-68
2023/09/21 06:00:00;;;;;;;4.23;1.33;;;21.70;99.90;;;;;;4973441;28;20191;-69
2023/09/21 06:02:28;;;;;;;10.03;2.77;;;21.40;99.90;;;;;;4971525;28;20254;-67
2023/09/21 06:04:56;;;;;;;6.53;1.73;;;21.00;99.90;;;;;;4972115;28;20245;-67
2023/09/21 06:07:25;;;;;;;9.10;1.50;;;20.90;99.90;;;;;;4972527;28;20225;-66
2023/09/21 06:09:53;;;;;;;5.10;1.67;;;20.90;99.90;;;;;;4954778;28;20187;-67
2023/09/21 06:12:21;;;;;;;6.93;1.50;;;20.80;99.90;;;;;;4973242;28;20274;-68
2023/09/21 06:14:50;;;;;;;9.63;1.70;;;21.10;99.90;;;;;;4972844;28;20740;-67
2023/09/21 06:17:18;;;;;;;5.73;1.50;;;20.90;99.90;;;;;;4972263;28;20207;-68
2023/09/21 06:19:46;;;;;;;7.43;1.60;;;20.40;99.90;;;;;;4972788;28;20560;-66
2023/09/21 06:22:14;;;;;;;8.30;1.77;;;20.40;99.90;;;;;;4972689;28;20276;-67
2023/09/21 06:24:42;;;;;;;9.47;1.70;;;20.40;99.90;;;;;;4972071;28;20257;-66
2023/09/21 06:27:10;;;;;;;7.60;1.87;;;20.20;99.90;;;;;;4972725;28;20195;-65
2023/09/21 06:29:40;;;;;;;9.20;2.20;;;20.00;99.90;;;;;;4973047;28;20217;-66
2023/09/21 06:32:08;;;;;;;6.57;1.47;;;19.90;99.90;;;;;;4954841;28;20211;-66
2023/09/21 06:34:36;;;;;;;7.27;1.20;;;19.80;99.90;;;;;;4975757;28;20209;-66
2023/09/21 06:37:04;;;;;;;9.07;1.73;;;19.70;99.90;;;;;;4975793;28;20193;-66
2023/09/21 06:39:32;;;;;;;11.93;1.80;;;19.60;99.90;;;;;;4958702;28;20187;-67
2023/09/21 06:42:00;;;;;;;9.97;2.20;;;19.50;99.90;;;;;;4976599;28;20719;-67
2023/09/21 06:44:29;;;;;;;8.33;1.77;;;19.40;99.90;;;;;;4976198;28;20669;-67
2023/09/21 06:46:57;;;;;;;7.27;1.93;;;19.30;99.90;;;;;;4973591;28;20528;-68
2023/09/21 06:49:26;;;;;;;8.70;1.97;;;19.40;99.90;;;;;;4959817;28;20192;-69
2023/09/21 06:51:56;;;;;;;9.80;1.83;;;19.40;99.90;;;;;;4948091;28;20218;-68
2023/09/21 06:54:26;;;;;;;11.70;2.20;;;19.20;99.90;;;;;;4976950;28;20610;-70
2023/09/21 06:56:54;;;;;;;7.87;2.30;;;18.70;99.90;;;;;;4977224;28;20720;-69
2023/09/21 06:59:22;;;;;;;6.53;1.63;;;18.40;99.90;;;;;;4977318;28;20740;-72
2023/09/21 07:01:50;;;;;;;13.27;2.07;;;18.30;99.90;;;;;;4977031;28;20305;-68
2023/09/21 07:04:18;;;;;;;9.53;2.23;;;18.40;99.90;;;;;;4976687;28;20191;-68
2023/09/21 07:06:46;;;;;;;6.80;1.67;;;18.30;99.90;;;;;;4955110;28;20591;-69
2023/09/21 07:09:15;;;;;;;8.07;1.70;;;18.40;99.90;;;;;;4973073;28;20571;-67
2023/09/21 07:11:43;;;;;;;5.50;1.80;;;18.30;99.90;;;;;;4967173;28;20211;-68
2023/09/21 07:14:11;;;;;;;8.37;1.90;;;18.30;99.90;;;;;;4969126;28;20601;-68
2023/09/21 07:16:38;;;;;;;9.90;1.93;;;18.30;99.90;;;;;;4976098;28;20211;-68
2023/09/21 07:19:10;;;;;;;9.53;1.70;;;18.20;99.90;;;;;;4976076;28;20234;-69
2023/09/21 07:21:37;;;;;;;14.53;2.23;;;18.10;99.90;;;;;;4975464;28;20215;-68
2023/09/21 07:24:07;;;;;;;6.17;2.03;;;18.10;99.90;;;;;;4975372;28;20254;-68
2023/09/21 07:26:35;;;;;;;11.27;2.37;;;17.90;99.90;;;;;;4972193;28;20678;-69
2023/09/21 07:29:06;;;;;;;10.00;2.77;;;17.80;99.90;;;;;;4975363;28;20220;-68
2023/09/21 07:31:35;;;;;;;6.60;1.93;;;17.70;99.90;;;;;;4974673;28;20182;-69
2023/09/21 07:34:06;;;;;;;8.70;1.97;;;17.70;99.90;;;;;;4975653;28;20187;-69
2023/09/21 07:36:38;;;;;;;8.77;2.03;;;17.60;99.90;;;;;;4975034;28;20188;-68
2023/09/21 07:39:10;;;;;;;4.60;1.67;;;17.60;99.90;;;;;;4958850;28;20214;-68
2023/09/21 07:41:40;;;;;;;9.27;1.97;;;17.50;99.90;;;;;;4975504;28;20219;-66
2023/09/21 07:44:09;;;;;;;10.37;1.97;;;17.50;99.90;;;;;;4957744;28;20307;-69
2023/09/21 07:46:38;;;;;;;8.43;2.30;;;17.50;99.90;;;;;;4975111;28;20190;-69
2023/09/21 07:49:06;;;;;;;13.93;2.07;;;17.50;99.90;;;;;;4975532;28;20548;-68
2023/09/21 07:51:35;;;;;;;6.97;1.77;;;17.40;99.90;;;;;;4974991;28;20191;-67
2023/09/21 07:54:03;;;;;;;10.03;1.93;;;17.40;99.90;;;;;;4974925;28;20191;-67
2023/09/21 07:59:52;;;;;;;8.03;1.83;;;17.30;99.90;;;;;;4955205;29;20247;-68
2023/09/21 08:02:21;;;;;;;8.00;1.80;;;17.40;99.90;;;;;;4955802;29;20307;-67
2023/09/21 08:04:50;;;;;;;8.10;2.00;;;17.50;99.90;;;;;;4958098;28;20184;-68
2023/09/21 08:07:23;;;;;;;4.67;1.37;;;17.50;99.90;;;;;;4974582;28;20283;-67
2023/09/21 08:09:51;;;;;;;10.37;2.60;;;17.50;99.90;;;;;;4959521;28;20199;-69
2023/09/21 08:12:18;;;;;;;8.27;2.07;;;17.60;99.90;;;;;;4974576;28;20566;-69
2023/09/21 08:14:46;;;;;;;12.80;2.03;;;17.50;99.90;;;;;;4973303;28;20278;-70
2023/09/21 08:17:14;;;;;;;9.03;1.33;;;17.50;99.90;;;;;;4974935;28;20286;-69
2023/09/21 08:19:42;;;;;;;14.43;2.40;;;17.40;99.90;;;;;;4974757;28;20274;-68
2023/09/21 08:22:10;;;;;;;5.20;1.40;;;17.40;99.90;;;;;;4974756;28;20278;-67
2023/09/21 08:24:41;;;;;;;7.50;2.27;;;17.30;99.90;;;;;;4974725;28;20235;-67
2023/09/21 08:27:11;;;;;;;11.67;1.90;;;17.30;99.90;;;;;;4953775;28;20649;-68
2023/09/21 08:29:41;;;;;;;7.87;1.97;;;17.30;99.90;;;;;;4974988;28;20645;-69
2023/09/21 08:32:09;;;;;;;7.47;1.63;;;17.20;99.90;;;;;;4976058;28;20549;-69
2023/09/21 08:34:37;;;;;;;5.87;1.57;;;17.30;99.90;;;;;;4975553;28;20194;-67
2023/09/21 08:37:05;;;;;;;7.90;1.80;;;17.30;99.90;;;;;;4955734;29;20235;-68
2023/09/21 08:39:32;;;;;;;7.70;1.47;;;17.10;99.90;;;;;;4956430;29;20189;-67
2023/09/21 08:42:02;;;;;;;9.03;2.30;;;17.00;99.90;;;;;;4956691;29;20223;-69
2023/09/21 08:44:31;;;;;;;8.57;1.87;;;16.90;99.90;;;;;;4945847;28;20183;-67
2023/09/21 08:47:01;;;;;;;5.07;1.83;;;16.90;99.90;;;;;;4973521;28;20207;-67
2023/09/21 08:49:31;;;;;;;7.47;1.90;;;17.00;99.90;;;;;;4973970;28;20215;-68
2023/09/21 08:52:02;;;;;;;10.07;2.30;;;16.90;99.90;;;;;;4974458;28;20249;-67
2023/09/21 08:54:31;;;;;;;8.33;1.77;;;16.90;99.90;;;;;;4974977;28;20630;-68
2023/09/21 08:57:01;;;;;;;4.33;1.60;;;16.90;99.90;;;;;;4941308;28;20199;-68
2023/09/21 08:59:30;;;;;;;9.63;1.80;;;17.00;99.90;;;;;;4974809;28;20194;-67
2023/09/21 09:01:58;;;;;;;7.60;1.93;;;17.00;99.90;;;;;;4974754;28;20207;-69
2023/09/21 09:04:28;;;;;;;9.53;2.10;;;16.90;99.90;;;;;;4974910;28;20183;-68
2023/09/21 09:06:57;;;;;;;5.57;1.77;;;16.80;99.90;;;;;;4974694;28;20194;-67
2023/09/21 09:09:26;;;;;;;5.90;1.83;;;16.80;99.90;;;;;;4958553;28;20187;-71
2023/09/21 09:11:57;;;;;;;7.73;2.00;;;16.80;99.90;;;;;;4974685;28;20198;-68
2023/09/21 09:14:25;;;;;;;8.67;1.70;;;16.80;99.90;;;;;;4957328;28;20235;-67
2023/09/21 09:16:53;;;;;;;5.77;1.70;;;16.90;99.90;;;;;;4942255;28;20194;-68
2023/09/21 09:19:24;;;;;;;4.97;1.60;;;17.10;99.90;;;;;;4974797;28;20656;-66
2023/09/21 09:21:52;;;;;;;9.47;1.77;;;17.20;99.90;;;;;;4974729;28;20762;-67
2023/09/21 09:24:22;;;;;;;5.80;1.77;;;17.30;99.90;;;;;;4974378;28;20179;-68
2023/09/21 09:26:50;;;;;;;7.00;1.70;;;17.30;99.90;;;;;;4974503;28;20199;-67
2023/09/21 09:29:18;;;;;;;11.53;1.83;;;17.30;99.90;;;;;;4974620;28;20211;-69
2023/09/21 09:31:49;;;;;;;8.00;1.80;;;17.20;99.90;;;;;;4974452;28;20202;-69
2023/09/21 09:34:18;;;;;;;13.83;2.37;;;17.20;99.90;;;;;;4974649;28;20558;-67
2023/09/21 09:36:53;;;;;;;10.67;1.87;;;17.10;99.90;;;;;;4955361;29;20235;-69
2023/09/21 09:39:23;;;;;;;10.93;2.33;;;17.00;99.90;;;;;;4955752;29;20183;-68
2023/09/21 09:41:53;;;;;;;8.27;1.73;;;17.10;99.90;;;;;;4961446;28;20207;-67
2023/09/21 09:44:22;;;;;;;7.83;1.97;;;17.10;99.90;;;;;;4960372;28;20546;-69
2023/09/21 09:46:57;;;;;;;8.90;1.87;;;17.10;99.90;;;;;;4962550;28;20187;-69
2023/09/21 09:49:38;;;;;;;11.40;1.83;;;17.10;99.90;;;;;;4957541;28;20179;-68
2023/09/21 09:52:09;;;;;;;9.87;1.70;;;17.10;99.90;;;;;;4974249;28;20203;-69
2023/09/21 09:54:39;;;;;;;12.73;1.90;;;17.00;99.90;;;;;;4974694;28;20175;-70
2023/09/21 09:57:21;;;;;;;8.60;2.10;;;17.00;99.90;;;;;;4974484;28;20180;-69
2023/09/21 09:59:50;;;;;;;8.67;2.10;;;16.80;99.90;;;;;;4974566;28;20226;-68
2023/09/21 10:02:19;;;;;;;9.10;2.17;;;16.90;99.90;;;;;;4974308;28;20298;-69
2023/09/21 10:04:51;;;;;;;7.93;1.67;;;17.00;99.90;;;;;;4974298;28;20307;-69
2023/09/21 10:07:19;;;;;;;5.30;1.93;;;17.00;99.90;;;;;;4973566;28;20274;-69
2023/09/21 10:09:48;;;;;;;10.50;2.10;;;16.90;99.90;;;;;;4974708;28;20182;-69
2023/09/21 10:12:19;;;;;;;8.17;1.73;;;16.90;99.90;;;;;;4956205;28;20187;-68
2023/09/21 10:14:49;;;;;;;7.83;2.20;;;16.90;99.90;;;;;;4973926;28;20245;-69
2023/09/21 10:17:27;;;;;;;11.13;2.27;;;16.90;99.90;;;;;;4957276;28;20708;-68
2023/09/21 10:20:18;;;;;;;8.33;2.00;;;16.90;99.90;;;;;;4974318;28;20183;-69
2023/09/21 10:22:46;;;;;;;8.60;1.70;;;16.80;99.90;;;;;;4974425;28;20719;-70
2023/09/21 10:25:18;;;;;;;8.47;2.03;;;16.90;99.90;;;;;;4974150;28;20184;-70
2023/09/21 10:27:56;;;;;;;7.20;2.00;;;16.90;99.90;;;;;;4973606;28;20222;-70
2023/09/21 10:30:25;;;;;;;10.33;1.93;;;16.80;99.90;;;;;;4974168;28;20197;-71
2023/09/21 10:32:55;;;;;;;7.33;2.10;;;16.90;99.90;;;;;;4974564;28;20191;-69
2023/09/21 10:35:49;;;;;;;10.53;2.33;;;16.80;99.90;;;;;;4973914;28;20676;-67
2023/09/21 10:38:18;;;;;;;11.37;1.97;;;16.80;99.90;;;;;;4973952;28;20597;-70
2023/09/21 10:40:46;;;;;;;11.07;1.90;;;16.70;99.90;;;;;;4974256;28;20205;-71
2023/09/21 10:43:38;;;;;;;7.03;2.13;;;16.60;99.90;;;;;;4973863;28;20195;-67
2023/09/21 10:46:26;;;;;;;7.67;2.10;;;16.70;99.90;;;;;;4974290;28;20175;-69
2023/09/21 10:49:06;;;;;;;7.83;2.17;;;16.60;99.90;;;;;;4956516;28;20634;-69
2023/09/21 10:51:40;;;;;;;7.37;2.20;;;16.60;99.90;;;;;;4974098;28;20525;-68
2023/09/21 10:54:11;;;;;;;12.20;2.20;;;16.70;99.90;;;;;;4973874;28;20187;-69
2023/09/21 10:56:43;;;;;;;8.57;2.10;;;16.70;99.90;;;;;;4956486;28;20725;-69
2023/09/21 10:59:30;;;;;;;8.90;2.10;;;16.80;99.90;;;;;;4972035;28;20195;-69
2023/09/21 11:01:58;;;;;;;8.70;2.47;;;16.80;99.90;;;;;;4973551;28;20582;-68
2023/09/21 11:04:26;;;;;;;7.93;2.03;;;16.80;99.90;;;;;;4974042;28;20171;-69
2023/09/21 11:06:57;;;;;;;11.10;2.90;;;16.70;99.90;;;;;;4956028;28;20187;-68
2023/09/21 11:09:26;;;;;;;9.63;2.13;;;16.70;99.90;;;;;;4956484;28;20281;-69
2023/09/21 11:11:54;;;;;;;7.57;2.33;;;16.70;99.90;;;;;;4973390;28;20188;-69
2023/09/21 11:14:25;;;;;;;9.83;1.80;;;16.70;99.90;;;;;;4972879;28;20235;-68
2023/09/21 11:16:54;;;;;;;10.37;2.10;;;16.70;99.90;;;;;;4973397;28;20183;-70
2023/09/21 11:19:23;;;;;;;8.50;2.23;;;16.70;99.90;;;;;;4941423;28;20294;-68
2023/09/21 11:21:52;;;;;;;6.57;2.30;;;16.70;99.90;;;;;;4976546;28;20250;-68
2023/09/21 11:24:20;;;;;;;11.63;1.93;;;16.70;99.90;;;;;;4959429;28;20189;-68
2023/09/21 11:26:54;;;;;;;6.97;2.20;;;16.70;99.90;;;;;;4976913;28;20696;-68
2023/09/21 11:29:22;;;;;;;8.50;2.30;;;16.60;99.90;;;;;;4976933;28;20242;-68
2023/09/21 11:31:50;;;;;;;9.00;2.00;;;16.60;99.90;;;;;;4976317;28;20196;-70
2023/09/21 11:34:21;;;;;;;9.37;1.77;;;16.70;99.90;;;;;;4976459;28;20229;-69
2023/09/21 11:36:51;;;;;;;9.83;2.40;;;16.60;99.90;;;;;;4976749;28;20203;-68
2023/09/21 11:39:27;;;;;;;10.23;2.30;;;16.60;99.90;;;;;;4958899;28;20684;-69
2023/09/21 11:41:56;;;;;;;5.40;1.67;;;16.60;99.90;;;;;;4976574;28;20309;-69
2023/09/21 11:44:30;;;;;;;7.37;1.80;;;16.60;99.90;;;;;;4975986;28;20649;-69
2023/09/21 11:46:58;;;;;;;6.70;2.10;;;16.60;99.90;;;;;;4976347;28;20234;-67
2023/09/21 11:49:42;;;;;;;9.27;1.93;;;16.50;99.90;;;;;;4958745;28;20270;-69
2023/09/21 11:52:12;;;;;;;9.40;2.50;;;16.40;99.90;;;;;;4976263;28;20183;-69
2023/09/21 11:54:40;;;;;;;8.03;2.17;;;16.30;99.90;;;;;;4956563;28;20710;-68
2023/09/21 11:57:12;;;;;;;10.40;1.93;;;16.20;99.90;;;;;;4958736;28;20218;-69
2023/09/21 11:59:51;;;;;;;13.07;3.07;;;16.20;99.90;;;;;;4975590;28;20190;-69
2023/09/21 12:02:19;;;;;;;12.30;2.57;;;16.20;99.90;;;;;;4975700;28;20218;-70
2023/09/21 12:04:49;;;;;;;9.10;2.00;;;16.30;99.90;;;;;;4975526;28;20184;-70
2023/09/21 12:07:17;;;;;;;7.83;2.13;;;16.20;99.90;;;;;;4976080;28;20715;-69
2023/09/21 12:09:46;;;;;;;9.47;1.97;;;16.30;99.90;;;;;;4975853;28;20172;-67
2023/09/21 12:12:14;;;;;;;9.10;2.13;;;16.30;99.90;;;;;;4957285;28;20279;-69
2023/09/21 12:14:49;;;;;;;8.87;1.90;;;16.30;99.90;;;;;;4973776;28;20223;-67
2023/09/21 12:17:19;;;;;;;9.53;1.90;;;16.30;99.90;;;;;;4974547;28;20191;-67
2023/09/21 12:19:47;;;;;;;8.80;1.87;;;16.20;99.90;;;;;;4974764;28;20188;-68
2023/09/21 12:22:15;;;;;;;5.87;1.77;;;16.30;99.90;;;;;;4974473;28;20214;-66
2023/09/21 12:24:44;;;;;;;10.03;1.93;;;16.30;99.90;;;;;;4958309;28;20202;-68
2023/09/21 12:27:13;;;;;;;8.70;1.93;;;16.20;99.90;;;;;;4975537;28;20307;-67
2023/09/21 12:29:41;;;;;;;10.77;2.00;;;16.00;99.90;;;;;;4975006;28;20191;-68
2023/09/21 12:32:10;;;;;;;12.47;2.17;;;15.90;99.90;;;;;;4956726;28;20270;-68
2023/09/21 12:34:37;;;;;;;7.80;1.87;;;15.80;99.90;;;;;;4974182;28;20183;-69
2023/09/21 12:37:06;;;;;;;9.07;1.97;;;15.50;99.90;;;;;;4975150;28;20194;-67
2023/09/21 12:39:37;;;;;;;9.97;2.07;;;15.50;99.90;;;;;;4943962;29;20225;-68
2023/09/21 12:42:06;;;;;;;7.27;1.67;;;15.40;99.90;;;;;;4974427;28;20234;-68
2023/09/21 12:44:37;;;;;;;7.03;1.63;;;15.30;99.90;;;;;;4975241;28;20195;-68
2023/09/21 12:47:09;;;;;;;8.23;2.17;;;15.30;99.90;;;;;;4975453;28;20314;-68
2023/09/21 12:49:39;;;;;;;9.87;2.40;;;15.30;99.90;;;;;;4942037;28;20553;-67
2023/09/21 12:52:06;;;;;;;6.70;2.07;;;15.20;99.90;;;;;;4956631;28;20187;-68
2023/09/21 12:54:34;;;;;;;7.50;2.07;;;15.10;99.90;;;;;;4973806;28;20203;-68
2023/09/21 12:57:03;;;;;;;6.60;1.90;;;15.10;99.90;;;;;;4974840;28;20179;-68
2023/09/21 12:59:31;;;;;;;7.83;2.07;;;15.10;99.90;;;;;;4974441;28;20182;-68
2023/09/21 13:01:58;;;;;;;9.00;2.43;;;15.00;99.90;;;;;;4957462;28;20223;-69
2023/09/21 13:04:30;;;;;;;7.20;1.70;;;15.00;99.90;;;;;;4973263;28;20664;-68